sensor_id;sensor_type;location;lat;lon;timestamp;temperature;humidity
37412;DHT22;23278;52.110;6.050;2023-02-28T00:01:26;1.50;94.90
37412;DHT22;23278;52.110;6.050;2023-02-28T00:03:52;1.60;94.90
37412;DHT22;23278;52.110;6.050;2023-02-28T00:06:18;1.70;94.70
37412;DHT22;23278;52.110;6.050;2023-02-28T00:08:44;1.80;94.70
37412;DHT22;23278;52.110;6.050;2023-02-28T00:11:12;2.00;94.80
37412;DHT22;23278;52.110;6.050;2023-02-28T00:13:42;2.00;94.60
37412;DHT22;23278;52.110;6.050;2023-02-28T00:16:11;2.10;94.50
37412;DHT22;23278;52.110;6.050;2023-02-28T00:18:39;2.20;94.60
37412;DHT22;23278;52.110;6.050;2023-02-28T00:21:06;2.20;94.50
37412;DHT22;23278;52.110;6.050;2023-02-28T00:23:32;2.30;94.50
37412;DHT22;23278;52.110;6.050;2023-02-28T00:25:58;2.30;94.50
37412;DHT22;23278;52.110;6.050;2023-02-28T00:28:24;2.40;94.60
37412;DHT22;23278;52.110;6.050;2023-02-28T00:30:50;2.50;94.50
37412;DHT22;23278;52.110;6.050;2023-02-28T00:33:17;2.50;94.40
37412;DHT22;23278;52.110;6.050;2023-02-28T00:35:43;2.60;94.40
37412;DHT22;23278;52.110;6.050;2023-02-28T00:38:13;2.60;94.30
37412;DHT22;23278;52.110;6.050;2023-02-28T00:40:39;2.70;94.20
37412;DHT22;23278;52.110;6.050;2023-02-28T00:43:05;2.70;94.20
37412;DHT22;23278;52.110;6.050;2023-02-28T00:45:30;2.80;94.30
37412;DHT22;23278;52.110;6.050;2023-02-28T00:47:56;2.80;94.40
37412;DHT22;23278;52.110;6.050;2023-02-28T00:50:22;2.80;94.30
37412;DHT22;23278;52.110;6.050;2023-02-28T00:52:48;2.80;94.20
37412;DHT22;23278;52.110;6.050;2023-02-28T00:55:14;2.80;94.30
37412;DHT22;23278;52.110;6.050;2023-02-28T00:57:40;2.80;94.30
37412;DHT22;23278;52.110;6.050;2023-02-28T01:00:07;2.90;94.20
37412;DHT22;23278;52.110;6.050;2023-02-28T01:02:33;2.90;94.30
37412;DHT22;23278;52.110;6.050;2023-02-28T01:04:59;2.90;94.30
37412;DHT22;23278;52.110;6.050;2023-02-28T01:07:29;2.90;94.50
37412;DHT22;23278;52.110;6.050;2023-02-28T01:09:55;2.90;94.50
37412;DHT22;23278;52.110;6.050;2023-02-28T01:12:21;2.90;94.70
37412;DHT22;23278;52.110;6.050;2023-02-28T01:14:47;2.90;94.60
37412;DHT22;23278;52.110;6.050;2023-02-28T01:17:12;2.90;94.60
37412;DHT22;23278;52.110;6.050;2023-02-28T01:19:38;2.90;94.60
37412;DHT22;23278;52.110;6.050;2023-02-28T01:22:05;3.00;94.60
37412;DHT22;23278;52.110;6.050;2023-02-28T01:24:31;3.00;94.70
37412;DHT22;23278;52.110;6.050;2023-02-28T01:26:57;3.10;94.70
37412;DHT22;23278;52.110;6.050;2023-02-28T01:29:23;3.10;94.70
37412;DHT22;23278;52.110;6.050;2023-02-28T01:31:49;3.10;94.70
37412;DHT22;23278;52.110;6.050;2023-02-28T01:34:15;3.20;94.80
37412;DHT22;23278;52.110;6.050;2023-02-28T01:36:41;3.20;94.80
37412;DHT22;23278;52.110;6.050;2023-02-28T01:39:07;3.20;94.90
37412;DHT22;23278;52.110;6.050;2023-02-28T01:41:34;3.20;95.10
37412;DHT22;23278;52.110;6.050;2023-02-28T01:44:04;3.20;95.10
37412;DHT22;23278;52.110;6.050;2023-02-28T01:46:34;3.20;95.10
37412;DHT22;23278;52.110;6.050;2023-02-28T01:49:08;3.20;95.10
37412;DHT22;23278;52.110;6.050;2023-02-28T01:51:46;3.30;95.00
37412;DHT22;23278;52.110;6.050;2023-02-28T01:54:28;3.30;95.10
37412;DHT22;23278;52.110;6.050;2023-02-28T01:56:59;3.30;95.20
37412;DHT22;23278;52.110;6.050;2023-02-28T02:02:13;3.40;95.20
37412;DHT22;23278;52.110;6.050;2023-02-28T02:04:54;3.40;95.30
37412;DHT22;23278;52.110;6.050;2023-02-28T02:07:21;3.40;95.10
37412;DHT22;23278;52.110;6.050;2023-02-28T02:09:47;3.40;95.10
37412;DHT22;23278;52.110;6.050;2023-02-28T02:12:43;3.40;95.00
37412;DHT22;23278;52.110;6.050;2023-02-28T02:15:20;3.50;95.30
37412;DHT22;23278;52.110;6.050;2023-02-28T02:17:52;3.50;95.20
37412;DHT22;23278;52.110;6.050;2023-02-28T02:20:38;3.50;95.10
37412;DHT22;23278;52.110;6.050;2023-02-28T02:42:23;3.60;95.00
37412;DHT22;23278;52.110;6.050;2023-02-28T02:45:07;3.60;95.10
37412;DHT22;23278;52.110;6.050;2023-02-28T02:47:35;3.70;95.10
37412;DHT22;23278;52.110;6.050;2023-02-28T02:50:05;3.70;95.10
37412;DHT22;23278;52.110;6.050;2023-02-28T02:52:38;3.70;95.20
37412;DHT22;23278;52.110;6.050;2023-02-28T02:55:07;3.70;95.20
37412;DHT22;23278;52.110;6.050;2023-02-28T02:57:38;3.70;95.20
37412;DHT22;23278;52.110;6.050;2023-02-28T03:00:06;3.70;95.30
37412;DHT22;23278;52.110;6.050;2023-02-28T03:02:37;3.70;95.50
37412;DHT22;23278;52.110;6.050;2023-02-28T03:05:17;3.70;95.40
37412;DHT22;23278;52.110;6.050;2023-02-28T03:07:44;3.70;95.70
37412;DHT22;23278;52.110;6.050;2023-02-28T03:10:38;3.70;95.50
37412;DHT22;23278;52.110;6.050;2023-02-28T03:16:09;3.70;95.70
37412;DHT22;23278;52.110;6.050;2023-02-28T03:24:32;3.70;95.90
37412;DHT22;23278;52.110;6.050;2023-02-28T03:27:11;3.70;95.90
37412;DHT22;23278;52.110;6.050;2023-02-28T03:29:46;3.70;96.00
37412;DHT22;23278;52.110;6.050;2023-02-28T03:32:27;3.70;96.10
37412;DHT22;23278;52.110;6.050;2023-02-28T03:37:33;3.70;96.20
37412;DHT22;23278;52.110;6.050;2023-02-28T03:40:11;3.70;96.20
37412;DHT22;23278;52.110;6.050;2023-02-28T03:42:41;3.70;96.20
37412;DHT22;23278;52.110;6.050;2023-02-28T03:45:17;3.70;96.50
37412;DHT22;23278;52.110;6.050;2023-02-28T03:47:55;3.70;96.50
37412;DHT22;23278;52.110;6.050;2023-02-28T03:50:35;3.70;96.50
37412;DHT22;23278;52.110;6.050;2023-02-28T03:53:07;3.70;96.50
37412;DHT22;23278;52.110;6.050;2023-02-28T03:55:46;3.70;96.70
37412;DHT22;23278;52.110;6.050;2023-02-28T03:58:32;3.70;96.70
37412;DHT22;23278;52.110;6.050;2023-02-28T04:01:15;3.70;96.80
37412;DHT22;23278;52.110;6.050;2023-02-28T04:03:43;3.60;97.00
37412;DHT22;23278;52.110;6.050;2023-02-28T04:06:18;3.60;97.20
37412;DHT22;23278;52.110;6.050;2023-02-28T04:08:44;3.50;97.40
37412;DHT22;23278;52.110;6.050;2023-02-28T04:11:21;3.50;97.70
37412;DHT22;23278;52.110;6.050;2023-02-28T04:13:48;3.40;97.90
37412;DHT22;23278;52.110;6.050;2023-02-28T04:16:14;3.40;98.10
37412;DHT22;23278;52.110;6.050;2023-02-28T04:18:41;3.40;98.20
37412;DHT22;23278;52.110;6.050;2023-02-28T04:21:09;3.40;98.20
37412;DHT22;23278;52.110;6.050;2023-02-28T04:23:35;3.40;98.20
37412;DHT22;23278;52.110;6.050;2023-02-28T04:26:02;3.50;98.20
37412;DHT22;23278;52.110;6.050;2023-02-28T04:28:27;3.50;98.20
37412;DHT22;23278;52.110;6.050;2023-02-28T04:30:59;3.50;98.10
37412;DHT22;23278;52.110;6.050;2023-02-28T04:33:25;3.50;98.10
37412;DHT22;23278;52.110;6.050;2023-02-28T04:35:59;3.50;98.10
37412;DHT22;23278;52.110;6.050;2023-02-28T04:38:25;3.50;98.10
37412;DHT22;23278;52.110;6.050;2023-02-28T04:40:51;3.50;98.20
37412;DHT22;23278;52.110;6.050;2023-02-28T04:43:17;3.50;98.10
37412;DHT22;23278;52.110;6.050;2023-02-28T04:45:43;3.50;98.10
37412;DHT22;23278;52.110;6.050;2023-02-28T04:48:08;3.50;98.10
37412;DHT22;23278;52.110;6.050;2023-02-28T04:50:34;3.50;98.10
37412;DHT22;23278;52.110;6.050;2023-02-28T04:53:00;3.50;98.10
37412;DHT22;23278;52.110;6.050;2023-02-28T04:55:26;3.50;98.20
37412;DHT22;23278;52.110;6.050;2023-02-28T04:57:52;3.50;98.40
37412;DHT22;23278;52.110;6.050;2023-02-28T05:00:18;3.50;98.20
37412;DHT22;23278;52.110;6.050;2023-02-28T05:02:44;3.50;98.20
37412;DHT22;23278;52.110;6.050;2023-02-28T05:05:09;3.50;98.10
37412;DHT22;23278;52.110;6.050;2023-02-28T05:07:36;3.50;98.10
37412;DHT22;23278;52.110;6.050;2023-02-28T05:10:01;3.50;98.00
37412;DHT22;23278;52.110;6.050;2023-02-28T05:12:28;3.50;98.00
37412;DHT22;23278;52.110;6.050;2023-02-28T05:14:54;3.60;98.00
37412;DHT22;23278;52.110;6.050;2023-02-28T05:17:20;3.50;98.00
37412;DHT22;23278;52.110;6.050;2023-02-28T05:19:46;3.50;97.90
37412;DHT22;23278;52.110;6.050;2023-02-28T05:22:15;3.50;98.00
37412;DHT22;23278;52.110;6.050;2023-02-28T05:24:44;3.50;97.90
37412;DHT22;23278;52.110;6.050;2023-02-28T05:27:10;3.60;98.00
37412;DHT22;23278;52.110;6.050;2023-02-28T05:29:36;3.60;97.90
37412;DHT22;23278;52.110;6.050;2023-02-28T05:32:11;3.60;97.80
37412;DHT22;23278;52.110;6.050;2023-02-28T05:34:41;3.60;97.80
37412;DHT22;23278;52.110;6.050;2023-02-28T05:37:12;3.60;97.70
37412;DHT22;23278;52.110;6.050;2023-02-28T05:39:38;3.60;97.70
37412;DHT22;23278;52.110;6.050;2023-02-28T05:42:04;3.60;97.60
37412;DHT22;23278;52.110;6.050;2023-02-28T05:44:31;3.60;97.60
37412;DHT22;23278;52.110;6.050;2023-02-28T05:46:56;3.60;97.60
37412;DHT22;23278;52.110;6.050;2023-02-28T05:49:22;3.60;97.50
37412;DHT22;23278;52.110;6.050;2023-02-28T05:51:48;3.60;97.50
37412;DHT22;23278;52.110;6.050;2023-02-28T05:54:14;3.60;97.50
37412;DHT22;23278;52.110;6.050;2023-02-28T05:56:40;3.60;97.40
37412;DHT22;23278;52.110;6.050;2023-02-28T05:59:10;3.60;97.40
37412;DHT22;23278;52.110;6.050;2023-02-28T06:01:44;3.60;97.30
37412;DHT22;23278;52.110;6.050;2023-02-28T06:04:15;3.60;97.40
37412;DHT22;23278;52.110;6.050;2023-02-28T06:06:49;3.60;97.30
37412;DHT22;23278;52.110;6.050;2023-02-28T06:09:16;3.60;97.30
37412;DHT22;23278;52.110;6.050;2023-02-28T06:11:42;3.60;97.30
37412;DHT22;23278;52.110;6.050;2023-02-28T06:14:15;3.60;97.30
37412;DHT22;23278;52.110;6.050;2023-02-28T06:16:42;3.60;97.20
37412;DHT22;23278;52.110;6.050;2023-02-28T06:19:09;3.60;97.10
37412;DHT22;23278;52.110;6.050;2023-02-28T06:21:35;3.70;97.20
37412;DHT22;23278;52.110;6.050;2023-02-28T06:24:01;3.70;97.20
37412;DHT22;23278;52.110;6.050;2023-02-28T06:26:28;3.70;97.10
37412;DHT22;23278;52.110;6.050;2023-02-28T06:28:54;3.70;97.10
37412;DHT22;23278;52.110;6.050;2023-02-28T06:31:20;3.70;97.30
37412;DHT22;23278;52.110;6.050;2023-02-28T06:33:46;3.70;97.10
37412;DHT22;23278;52.110;6.050;2023-02-28T06:36:13;3.70;97.10
37412;DHT22;23278;52.110;6.050;2023-02-28T06:38:40;3.70;97.10
37412;DHT22;23278;52.110;6.050;2023-02-28T06:41:07;3.70;97.10
37412;DHT22;23278;52.110;6.050;2023-02-28T06:43:36;3.70;97.00
37412;DHT22;23278;52.110;6.050;2023-02-28T06:46:06;3.80;97.00
37412;DHT22;23278;52.110;6.050;2023-02-28T06:48:32;3.80;96.90
37412;DHT22;23278;52.110;6.050;2023-02-28T06:51:19;3.80;96.80
37412;DHT22;23278;52.110;6.050;2023-02-28T06:53:48;3.90;96.90
37412;DHT22;23278;52.110;6.050;2023-02-28T06:56:16;3.90;96.80
37412;DHT22;23278;52.110;6.050;2023-02-28T06:58:49;3.90;96.80
37412;DHT22;23278;52.110;6.050;2023-02-28T07:01:15;3.90;96.80
37412;DHT22;23278;52.110;6.050;2023-02-28T07:03:42;3.90;96.70
37412;DHT22;23278;52.110;6.050;2023-02-28T07:06:08;3.90;96.80
37412;DHT22;23278;52.110;6.050;2023-02-28T07:08:35;4.00;96.80
37412;DHT22;23278;52.110;6.050;2023-02-28T07:11:02;4.00;96.80
37412;DHT22;23278;52.110;6.050;2023-02-28T07:13:28;3.90;96.90
37412;DHT22;23278;52.110;6.050;2023-02-28T07:15:55;3.90;97.00
37412;DHT22;23278;52.110;6.050;2023-02-28T07:18:22;3.90;97.10
37412;DHT22;23278;52.110;6.050;2023-02-28T07:20:48;3.80;97.10
37412;DHT22;23278;52.110;6.050;2023-02-28T07:23:14;3.90;97.10
37412;DHT22;23278;52.110;6.050;2023-02-28T07:25:40;3.90;97.10
37412;DHT22;23278;52.110;6.050;2023-02-28T07:28:06;4.00;97.00
37412;DHT22;23278;52.110;6.050;2023-02-28T07:30:32;4.10;96.80
37412;DHT22;23278;52.110;6.050;2023-02-28T07:32:58;4.20;96.70
37412;DHT22;23278;52.110;6.050;2023-02-28T07:35:23;4.30;96.60
37412;DHT22;23278;52.110;6.050;2023-02-28T07:37:49;4.40;96.50
37412;DHT22;23278;52.110;6.050;2023-02-28T07:40:15;4.50;96.30
37412;DHT22;23278;52.110;6.050;2023-02-28T07:42:43;4.60;96.20
37412;DHT22;23278;52.110;6.050;2023-02-28T07:45:10;4.60;96.20
37412;DHT22;23278;52.110;6.050;2023-02-28T07:47:38;4.60;96.20
37412;DHT22;23278;52.110;6.050;2023-02-28T07:50:06;4.50;96.00
37412;DHT22;23278;52.110;6.050;2023-02-28T07:52:32;4.50;96.00
37412;DHT22;23278;52.110;6.050;2023-02-28T07:54:58;4.40;96.00
37412;DHT22;23278;52.110;6.050;2023-02-28T07:57:24;4.30;96.10
37412;DHT22;23278;52.110;6.050;2023-02-28T07:59:51;4.20;96.00
37412;DHT22;23278;52.110;6.050;2023-02-28T08:02:17;4.30;95.80
37412;DHT22;23278;52.110;6.050;2023-02-28T08:04:44;4.30;95.50
37412;DHT22;23278;52.110;6.050;2023-02-28T08:07:12;4.40;95.20
37412;DHT22;23278;52.110;6.050;2023-02-28T08:09:39;4.60;95.00
37412;DHT22;23278;52.110;6.050;2023-02-28T08:12:06;4.80;94.70
37412;DHT22;23278;52.110;6.050;2023-02-28T08:14:33;4.90;94.20
37412;DHT22;23278;52.110;6.050;2023-02-28T08:16:59;5.00;93.70
37412;DHT22;23278;52.110;6.050;2023-02-28T08:19:25;5.00;93.60
37412;DHT22;23278;52.110;6.050;2023-02-28T08:21:51;5.00;93.50
37412;DHT22;23278;52.110;6.050;2023-02-28T08:24:16;5.10;93.10
37412;DHT22;23278;52.110;6.050;2023-02-28T08:26:42;5.20;92.70
37412;DHT22;23278;52.110;6.050;2023-02-28T08:29:08;5.40;92.70
37412;DHT22;23278;52.110;6.050;2023-02-28T08:31:34;5.70;92.40
37412;DHT22;23278;52.110;6.050;2023-02-28T08:34:06;5.90;91.50
37412;DHT22;23278;52.110;6.050;2023-02-28T08:36:32;6.20;90.90
37412;DHT22;23278;52.110;6.050;2023-02-28T08:38:58;6.40;90.50
37412;DHT22;23278;52.110;6.050;2023-02-28T08:41:25;6.70;89.40
37412;DHT22;23278;52.110;6.050;2023-02-28T08:43:52;6.90;87.40
37412;DHT22;23278;52.110;6.050;2023-02-28T08:46:19;7.20;85.10
37412;DHT22;23278;52.110;6.050;2023-02-28T08:48:45;7.60;82.10
37412;DHT22;23278;52.110;6.050;2023-02-28T08:51:16;7.80;77.20
37412;DHT22;23278;52.110;6.050;2023-02-28T08:53:44;8.00;74.30
37412;DHT22;23278;52.110;6.050;2023-02-28T08:56:13;8.30;68.80
37412;DHT22;23278;52.110;6.050;2023-02-28T08:58:39;8.40;64.60
37412;DHT22;23278;52.110;6.050;2023-02-28T09:03:39;8.60;59.10
37412;DHT22;23278;52.110;6.050;2023-02-28T09:06:08;8.50;57.10
37412;DHT22;23278;52.110;6.050;2023-02-28T09:08:34;8.60;55.80
37412;DHT22;23278;52.110;6.050;2023-02-28T09:11:00;8.70;54.60
37412;DHT22;23278;52.110;6.050;2023-02-28T09:13:27;9.10;54.10
37412;DHT22;23278;52.110;6.050;2023-02-28T09:15:54;9.60;52.30
37412;DHT22;23278;52.110;6.050;2023-02-28T09:18:20;10.00;50.10
37412;DHT22;23278;52.110;6.050;2023-02-28T09:20:46;10.50;47.80
37412;DHT22;23278;52.110;6.050;2023-02-28T09:23:13;10.90;46.90
37412;DHT22;23278;52.110;6.050;2023-02-28T09:25:51;11.30;44.30
37412;DHT22;23278;52.110;6.050;2023-02-28T09:28:18;11.60;43.10
37412;DHT22;23278;52.110;6.050;2023-02-28T09:30:46;11.90;41.10
37412;DHT22;23278;52.110;6.050;2023-02-28T09:33:13;12.10;40.70
37412;DHT22;23278;52.110;6.050;2023-02-28T09:35:39;12.40;41.10
37412;DHT22;23278;52.110;6.050;2023-02-28T09:38:05;12.70;39.90
37412;DHT22;23278;52.110;6.050;2023-02-28T09:40:37;13.10;38.80
37412;DHT22;23278;52.110;6.050;2023-02-28T09:43:05;13.50;38.10
37412;DHT22;23278;52.110;6.050;2023-02-28T09:45:32;13.90;37.80
37412;DHT22;23278;52.110;6.050;2023-02-28T09:48:03;14.20;36.30
37412;DHT22;23278;52.110;6.050;2023-02-28T09:50:38;14.40;34.80
37412;DHT22;23278;52.110;6.050;2023-02-28T09:55:58;14.70;34.60
37412;DHT22;23278;52.110;6.050;2023-02-28T09:58:47;15.30;33.80
37412;DHT22;23278;52.110;6.050;2023-02-28T10:03:56;16.50;33.20
37412;DHT22;23278;52.110;6.050;2023-02-28T10:06:34;16.90;32.30
37412;DHT22;23278;52.110;6.050;2023-02-28T10:11:40;17.70;31.00
37412;DHT22;23278;52.110;6.050;2023-02-28T10:14:22;18.20;31.30
37412;DHT22;23278;52.110;6.050;2023-02-28T10:17:04;18.80;30.00
37412;DHT22;23278;52.110;6.050;2023-02-28T10:19:39;19.10;29.30
37412;DHT22;23278;52.110;6.050;2023-02-28T10:22:27;19.20;29.20
37412;DHT22;23278;52.110;6.050;2023-02-28T10:24:57;19.40;28.60
37412;DHT22;23278;52.110;6.050;2023-02-28T10:27:34;19.70;28.60
37412;DHT22;23278;52.110;6.050;2023-02-28T10:30:01;20.00;28.30
37412;DHT22;23278;52.110;6.050;2023-02-28T10:35:23;20.50;27.70
37412;DHT22;23278;52.110;6.050;2023-02-28T10:37:53;20.60;27.50
37412;DHT22;23278;52.110;6.050;2023-02-28T10:45:34;22.20;27.50
37412;DHT22;23278;52.110;6.050;2023-02-28T10:56:04;23.40;26.70
37412;DHT22;23278;52.110;6.050;2023-02-28T11:01:44;24.20;26.00
37412;DHT22;23278;52.110;6.050;2023-02-28T11:06:58;23.60;25.90
37412;DHT22;23278;52.110;6.050;2023-02-28T11:09:32;22.80;26.20
37412;DHT22;23278;52.110;6.050;2023-02-28T11:12:02;23.10;26.40
37412;DHT22;23278;52.110;6.050;2023-02-28T11:14:31;23.60;25.80
37412;DHT22;23278;52.110;6.050;2023-02-28T11:17:20;23.90;26.10
37412;DHT22;23278;52.110;6.050;2023-02-28T11:19:50;24.60;25.90
37412;DHT22;23278;52.110;6.050;2023-02-28T11:22:19;25.10;25.70
37412;DHT22;23278;52.110;6.050;2023-02-28T11:24:50;25.80;25.90
37412;DHT22;23278;52.110;6.050;2023-02-28T11:29:55;26.60;25.60
37412;DHT22;23278;52.110;6.050;2023-02-28T11:32:23;26.80;25.20
37412;DHT22;23278;52.110;6.050;2023-02-28T11:37:31;27.00;25.10
37412;DHT22;23278;52.110;6.050;2023-02-28T11:39:58;26.90;25.00
37412;DHT22;23278;52.110;6.050;2023-02-28T11:45:36;26.80;24.80
37412;DHT22;23278;52.110;6.050;2023-02-28T12:07:32;26.80;24.10
37412;DHT22;23278;52.110;6.050;2023-02-28T12:18:29;27.20;23.90
37412;DHT22;23278;52.110;6.050;2023-02-28T12:24:07;27.90;23.90
37412;DHT22;23278;52.110;6.050;2023-02-28T12:26:42;27.80;24.00
37412;DHT22;23278;52.110;6.050;2023-02-28T12:31:42;28.50;24.10
37412;DHT22;23278;52.110;6.050;2023-02-28T12:34:19;28.70;24.30
37412;DHT22;23278;52.110;6.050;2023-02-28T12:36:49;28.60;23.90
37412;DHT22;23278;52.110;6.050;2023-02-28T12:39:25;28.50;23.80
37412;DHT22;23278;52.110;6.050;2023-02-28T12:41:56;28.20;23.60
37412;DHT22;23278;52.110;6.050;2023-02-28T12:44:44;28.20;23.40
37412;DHT22;23278;52.110;6.050;2023-02-28T12:47:16;28.40;23.60
37412;DHT22;23278;52.110;6.050;2023-02-28T12:49:45;29.00;23.60
37412;DHT22;23278;52.110;6.050;2023-02-28T12:52:16;29.20;23.50
37412;DHT22;23278;52.110;6.050;2023-02-28T12:54:51;29.40;23.60
37412;DHT22;23278;52.110;6.050;2023-02-28T12:57:40;29.30;23.00
37412;DHT22;23278;52.110;6.050;2023-02-28T13:05:32;28.90;23.10
37412;DHT22;23278;52.110;6.050;2023-02-28T13:14:06;28.40;23.10
37412;DHT22;23278;52.110;6.050;2023-02-28T13:22:40;29.60;23.00
37412;DHT22;23278;52.110;6.050;2023-02-28T13:27:57;29.30;22.90
37412;DHT22;23278;52.110;6.050;2023-02-28T13:46:25;28.80;22.90
37412;DHT22;23278;52.110;6.050;2023-02-28T13:48:51;29.00;22.90
37412;DHT22;23278;52.110;6.050;2023-02-28T13:51:44;29.40;22.90
37412;DHT22;23278;52.110;6.050;2023-02-28T14:05:11;29.20;22.70
37412;DHT22;23278;52.110;6.050;2023-02-28T14:07:47;29.30;22.90
37412;DHT22;23278;52.110;6.050;2023-02-28T14:10:48;29.40;22.80
37412;DHT22;23278;52.110;6.050;2023-02-28T14:16:08;29.80;22.90
37412;DHT22;23278;52.110;6.050;2023-02-28T14:18:41;29.70;22.80
37412;DHT22;23278;52.110;6.050;2023-02-28T14:21:12;29.40;22.70
37412;DHT22;23278;52.110;6.050;2023-02-28T14:30:15;29.40;23.00
37412;DHT22;23278;52.110;6.050;2023-02-28T14:33:17;29.30;22.80
37412;DHT22;23278;52.110;6.050;2023-02-28T14:38:32;29.00;23.00
37412;DHT22;23278;52.110;6.050;2023-02-28T14:41:02;28.90;23.00
37412;DHT22;23278;52.110;6.050;2023-02-28T14:43:29;28.80;23.10
37412;DHT22;23278;52.110;6.050;2023-02-28T14:45:58;28.70;23.00
37412;DHT22;23278;52.110;6.050;2023-02-28T14:48:26;28.60;22.90
37412;DHT22;23278;52.110;6.050;2023-02-28T14:50:55;28.40;23.00
37412;DHT22;23278;52.110;6.050;2023-02-28T14:53:25;28.70;23.30
37412;DHT22;23278;52.110;6.050;2023-02-28T14:55:52;28.80;23.00
37412;DHT22;23278;52.110;6.050;2023-02-28T14:58:29;28.60;23.00
37412;DHT22;23278;52.110;6.050;2023-02-28T15:00:58;28.40;23.00
37412;DHT22;23278;52.110;6.050;2023-02-28T15:03:33;28.10;23.10
37412;DHT22;23278;52.110;6.050;2023-02-28T15:06:12;27.80;23.10
37412;DHT22;23278;52.110;6.050;2023-02-28T15:08:38;27.60;23.20
37412;DHT22;23278;52.110;6.050;2023-02-28T15:11:12;27.40;23.20
37412;DHT22;23278;52.110;6.050;2023-02-28T15:13:48;27.30;23.20
37412;DHT22;23278;52.110;6.050;2023-02-28T15:16:21;27.10;23.30
37412;DHT22;23278;52.110;6.050;2023-02-28T15:19:05;26.80;23.40
37412;DHT22;23278;52.110;6.050;2023-02-28T15:21:36;26.10;23.40
37412;DHT22;23278;52.110;6.050;2023-02-28T15:24:51;24.70;23.70
37412;DHT22;23278;52.110;6.050;2023-02-28T15:26:58;23.00;24.40
37412;DHT22;23278;52.110;6.050;2023-02-28T15:29:26;21.20;25.10
37412;DHT22;23278;52.110;6.050;2023-02-28T15:32:04;20.00;25.60
37412;DHT22;23278;52.110;6.050;2023-02-28T15:34:39;19.00;26.20
37412;DHT22;23278;52.110;6.050;2023-02-28T15:39:55;17.20;27.60
37412;DHT22;23278;52.110;6.050;2023-02-28T15:42:23;16.50;28.00
37412;DHT22;23278;52.110;6.050;2023-02-28T15:44:53;15.80;28.40
37412;DHT22;23278;52.110;6.050;2023-02-28T15:47:24;15.20;28.70
37412;DHT22;23278;52.110;6.050;2023-02-28T15:49:59;14.50;29.10
37412;DHT22;23278;52.110;6.050;2023-02-28T15:52:37;14.10;29.60
37412;DHT22;23278;52.110;6.050;2023-02-28T15:55:22;13.60;29.80
37412;DHT22;23278;52.110;6.050;2023-02-28T15:57:59;13.20;29.80
37412;DHT22;23278;52.110;6.050;2023-02-28T16:00:27;13.00;30.00
37412;DHT22;23278;52.110;6.050;2023-02-28T16:02:54;12.70;30.40
37412;DHT22;23278;52.110;6.050;2023-02-28T16:05:30;12.40;30.90
37412;DHT22;23278;52.110;6.050;2023-02-28T16:08:00;12.10;31.00
37412;DHT22;23278;52.110;6.050;2023-02-28T16:10:28;11.80;31.50
37412;DHT22;23278;52.110;6.050;2023-02-28T16:12:55;11.50;31.90
37412;DHT22;23278;52.110;6.050;2023-02-28T16:15:32;11.20;32.00
37412;DHT22;23278;52.110;6.050;2023-02-28T16:18:00;11.00;32.50
37412;DHT22;23278;52.110;6.050;2023-02-28T16:20:30;10.80;32.80
37412;DHT22;23278;52.110;6.050;2023-02-28T16:22:56;10.60;33.10
37412;DHT22;23278;52.110;6.050;2023-02-28T16:25:39;10.30;33.30
37412;DHT22;23278;52.110;6.050;2023-02-28T16:28:17;10.20;33.60
37412;DHT22;23278;52.110;6.050;2023-02-28T16:30:45;10.00;34.10
37412;DHT22;23278;52.110;6.050;2023-02-28T16:33:11;9.90;34.40
37412;DHT22;23278;52.110;6.050;2023-02-28T16:35:36;9.70;34.80
37412;DHT22;23278;52.110;6.050;2023-02-28T16:38:03;9.60;34.80
37412;DHT22;23278;52.110;6.050;2023-02-28T16:40:34;9.50;34.90
37412;DHT22;23278;52.110;6.050;2023-02-28T16:43:00;9.40;35.50
37412;DHT22;23278;52.110;6.050;2023-02-28T16:45:29;9.30;35.70
37412;DHT22;23278;52.110;6.050;2023-02-28T16:47:56;9.20;35.60
37412;DHT22;23278;52.110;6.050;2023-02-28T16:50:24;9.00;35.80
37412;DHT22;23278;52.110;6.050;2023-02-28T16:52:51;9.00;35.90
37412;DHT22;23278;52.110;6.050;2023-02-28T16:55:21;8.90;36.10
37412;DHT22;23278;52.110;6.050;2023-02-28T16:57:55;8.80;36.10
37412;DHT22;23278;52.110;6.050;2023-02-28T17:00:22;8.70;36.50
37412;DHT22;23278;52.110;6.050;2023-02-28T17:02:48;8.70;36.80
37412;DHT22;23278;52.110;6.050;2023-02-28T17:05:14;8.60;36.80
37412;DHT22;23278;52.110;6.050;2023-02-28T17:07:41;8.50;36.90
37412;DHT22;23278;52.110;6.050;2023-02-28T17:12:37;8.40;37.20
37412;DHT22;23278;52.110;6.050;2023-02-28T17:15:03;8.30;37.30
37412;DHT22;23278;52.110;6.050;2023-02-28T17:17:29;8.20;37.50
37412;DHT22;23278;52.110;6.050;2023-02-28T17:19:55;8.10;37.60
37412;DHT22;23278;52.110;6.050;2023-02-28T17:22:21;8.10;37.70
37412;DHT22;23278;52.110;6.050;2023-02-28T17:24:47;8.00;37.90
37412;DHT22;23278;52.110;6.050;2023-02-28T17:27:13;8.00;38.10
37412;DHT22;23278;52.110;6.050;2023-02-28T17:29:39;7.90;37.90
37412;DHT22;23278;52.110;6.050;2023-02-28T17:32:05;7.80;37.90
37412;DHT22;23278;52.110;6.050;2023-02-28T17:34:31;7.70;38.20
37412;DHT22;23278;52.110;6.050;2023-02-28T17:36:57;7.60;38.30
37412;DHT22;23278;52.110;6.050;2023-02-28T17:39:24;7.60;38.50
37412;DHT22;23278;52.110;6.050;2023-02-28T17:41:54;7.50;38.60
37412;DHT22;23278;52.110;6.050;2023-02-28T17:44:20;7.50;38.80
37412;DHT22;23278;52.110;6.050;2023-02-28T17:46:47;7.40;39.10
37412;DHT22;23278;52.110;6.050;2023-02-28T17:49:13;7.40;39.10
37412;DHT22;23278;52.110;6.050;2023-02-28T17:51:39;7.30;39.30
37412;DHT22;23278;52.110;6.050;2023-02-28T17:54:05;7.30;39.30
37412;DHT22;23278;52.110;6.050;2023-02-28T17:56:32;7.20;39.20
37412;DHT22;23278;52.110;6.050;2023-02-28T17:58:58;7.10;39.40
37412;DHT22;23278;52.110;6.050;2023-02-28T18:01:24;7.00;39.40
37412;DHT22;23278;52.110;6.050;2023-02-28T18:03:54;7.00;39.50
37412;DHT22;23278;52.110;6.050;2023-02-28T18:06:28;6.90;39.70
37412;DHT22;23278;52.110;6.050;2023-02-28T18:08:56;6.80;39.60
37412;DHT22;23278;52.110;6.050;2023-02-28T18:11:23;6.80;39.80
37412;DHT22;23278;52.110;6.050;2023-02-28T18:13:52;6.70;40.10
37412;DHT22;23278;52.110;6.050;2023-02-28T18:16:19;6.60;40.20
37412;DHT22;23278;52.110;6.050;2023-02-28T18:18:46;6.60;40.30
37412;DHT22;23278;52.110;6.050;2023-02-28T18:21:14;6.50;40.40
37412;DHT22;23278;52.110;6.050;2023-02-28T18:23:42;6.50;40.70
37412;DHT22;23278;52.110;6.050;2023-02-28T18:26:14;6.40;41.10
37412;DHT22;23278;52.110;6.050;2023-02-28T18:28:40;6.40;41.20
37412;DHT22;23278;52.110;6.050;2023-02-28T18:31:08;6.30;41.50
37412;DHT22;23278;52.110;6.050;2023-02-28T18:33:34;6.30;41.60
37412;DHT22;23278;52.110;6.050;2023-02-28T18:36:00;6.20;41.90
37412;DHT22;23278;52.110;6.050;2023-02-28T18:38:26;6.10;42.80
37412;DHT22;23278;52.110;6.050;2023-02-28T18:40:56;6.00;43.20
37412;DHT22;23278;52.110;6.050;2023-02-28T18:43:25;5.90;43.50
37412;DHT22;23278;52.110;6.050;2023-02-28T18:45:51;5.80;43.80
37412;DHT22;23278;52.110;6.050;2023-02-28T18:48:17;5.70;44.30
37412;DHT22;23278;52.110;6.050;2023-02-28T18:50:45;5.60;45.00